createdAt,value
2023-11-21T00:00:44.776Z,10.76
2023-11-21T00:03:14.669Z,10.67
2023-11-21T00:05:41.489Z,10.81
2023-11-21T00:08:11.274Z,10.90
2023-11-21T00:10:38.110Z,10.79
2023-11-21T00:13:04.879Z,10.49
2023-11-21T00:15:31.701Z,10.61
2023-11-21T00:17:58.496Z,10.69
2023-11-21T00:20:28.332Z,10.60
2023-11-21T00:22:55.123Z,10.45
2023-11-21T00:25:21.988Z,10.18
2023-11-21T00:27:48.789Z,10.34
2023-11-21T00:30:18.583Z,10.62
2023-11-21T00:32:45.413Z,10.80
2023-11-21T00:35:15.216Z,10.92
2023-11-21T00:37:42.069Z,10.91
2023-11-21T00:40:11.914Z,11.09
2023-11-21T00:42:38.763Z,11.12
2023-11-21T00:45:05.564Z,11.12
2023-11-21T00:47:32.449Z,10.93
2023-11-21T00:49:59.297Z,10.80
2023-11-21T00:52:26.155Z,10.86
2023-11-21T00:54:52.929Z,10.86
2023-11-21T00:57:19.712Z,10.65
2023-11-21T00:59:46.519Z,10.67
2023-11-21T01:02:13.420Z,10.61
2023-11-21T01:04:40.264Z,10.58
2023-11-21T01:07:07.057Z,10.47
2023-11-21T01:09:33.844Z,10.42
2023-11-21T01:12:03.695Z,10.44
2023-11-21T01:14:30.466Z,10.37
2023-11-21T01:16:57.303Z,10.17
2023-11-21T01:19:24.174Z,10.23
2023-11-21T01:21:50.962Z,10.19
2023-11-21T01:24:20.784Z,10.24
2023-11-21T01:26:47.593Z,10.25
2023-11-21T01:29:14.391Z,10.21
2023-11-21T01:31:44.428Z,10.28
2023-11-21T01:34:14.315Z,10.36
2023-11-21T01:36:41.079Z,10.24
2023-11-21T01:39:10.919Z,10.35
2023-11-21T01:41:37.701Z,10.34
2023-11-21T01:44:04.516Z,10.26
2023-11-21T01:46:31.273Z,10.39
2023-11-21T01:49:01.133Z,10.44
2023-11-21T01:51:27.891Z,10.44
2023-11-21T01:53:57.686Z,10.36
2023-11-21T01:56:27.454Z,10.32
2023-11-21T01:58:57.282Z,10.22
2023-11-21T02:01:24.061Z,10.29
2023-11-21T02:03:51.013Z,10.36
2023-11-21T02:06:17.775Z,10.17
2023-11-21T02:08:47.599Z,10.29
2023-11-21T02:11:14.374Z,10.22
2023-11-21T02:13:44.472Z,10.05
2023-11-21T02:16:11.478Z,9.97
2023-11-21T02:18:38.374Z,9.96
2023-11-21T02:21:05.182Z,10.02
2023-11-21T02:23:31.970Z,10.12
2023-11-21T02:25:58.766Z,10.19
2023-11-21T02:28:28.602Z,10.21
2023-11-21T02:30:55.422Z,10.24
2023-11-21T02:33:25.330Z,10.21
2023-11-21T02:35:52.092Z,10.33
2023-11-21T02:38:18.927Z,10.40
2023-11-21T02:40:45.892Z,10.33
2023-11-21T02:43:12.791Z,10.34
2023-11-21T02:45:42.578Z,10.31
2023-11-21T02:48:09.478Z,10.38
2023-11-21T02:50:36.236Z,10.34
2023-11-21T02:53:02.996Z,10.40
2023-11-21T02:55:29.821Z,10.41
2023-11-21T02:57:59.728Z,10.34
2023-11-21T03:00:26.607Z,10.26
2023-11-21T03:02:53.441Z,10.18
2023-11-21T03:05:23.266Z,10.23
2023-11-21T03:07:50.140Z,10.32
2023-11-21T03:10:21.143Z,10.25
2023-11-21T03:12:50.927Z,10.32
2023-11-21T03:15:17.743Z,10.24
2023-11-21T03:17:47.649Z,10.27
2023-11-21T03:20:17.472Z,10.15
2023-11-21T03:22:44.404Z,10.17
2023-11-21T03:25:14.427Z,10.28
2023-11-21T03:27:41.286Z,10.28
2023-11-21T03:30:08.069Z,10.11
2023-11-21T03:32:34.828Z,10.07
2023-11-21T03:35:01.693Z,10.00
2023-11-21T03:37:28.747Z,10.11
2023-11-21T03:39:55.978Z,10.22
2023-11-21T03:42:22.753Z,10.27
2023-11-21T03:44:52.573Z,10.24
2023-11-21T03:47:19.343Z,10.21
2023-11-21T03:49:46.214Z,10.21
2023-11-21T03:52:16.151Z,10.24
2023-11-21T03:54:42.979Z,10.21
2023-11-21T03:57:09.738Z,10.13
2023-11-21T03:59:36.564Z,10.06
2023-11-21T04:02:03.413Z,10.15
2023-11-21T04:04:33.303Z,10.24
2023-11-21T04:07:03.233Z,10.28
2023-11-21T04:09:30.029Z,10.24
2023-11-21T04:11:56.799Z,10.33
2023-11-21T04:14:23.584Z,10.32
2023-11-21T04:16:50.403Z,10.26
2023-11-21T04:19:17.269Z,10.31
2023-11-21T04:21:44.079Z,10.18
2023-11-21T04:24:10.879Z,9.99
2023-11-21T04:26:37.650Z,9.98
2023-11-21T04:29:04.429Z,10.01
2023-11-21T04:31:31.275Z,9.90
2023-11-21T04:33:58.043Z,9.95
2023-11-21T04:36:24.860Z,10.09
2023-11-21T04:38:54.683Z,10.03
2023-11-21T04:41:24.467Z,10.11
2023-11-21T04:43:54.351Z,10.23
2023-11-21T04:46:21.318Z,10.23
2023-11-21T04:48:48.160Z,10.11
2023-11-21T04:51:14.988Z,10.14
2023-11-21T04:53:44.789Z,10.08
2023-11-21T04:56:14.582Z,9.90
2023-11-21T04:58:41.428Z,9.77
2023-11-21T05:01:08.790Z,9.95
2023-11-21T05:03:35.810Z,10.15
2023-11-21T05:06:02.727Z,10.17
2023-11-21T05:08:29.568Z,10.16
2023-11-21T05:10:59.401Z,10.04
2023-11-21T05:13:26.220Z,9.93
2023-11-21T05:15:53.074Z,10.14
2023-11-21T05:18:19.918Z,10.24
2023-11-21T05:20:49.752Z,10.27
2023-11-21T05:23:19.565Z,10.23
2023-11-21T05:25:46.378Z,10.26
2023-11-21T05:28:16.208Z,10.25
2023-11-21T05:30:43.043Z,10.29
2023-11-21T05:33:09.925Z,10.38
2023-11-21T05:35:36.751Z,10.38
2023-11-21T05:38:03.559Z,10.43
2023-11-21T05:40:30.369Z,10.23
2023-11-21T05:43:00.284Z,10.32
2023-11-21T05:45:27.094Z,10.24
2023-11-21T05:47:53.917Z,10.11
2023-11-21T05:50:20.728Z,10.20
2023-11-21T05:52:47.438Z,10.28
2023-11-21T05:55:14.450Z,10.17
2023-11-21T05:57:41.292Z,10.14
2023-11-21T06:00:07.888Z,10.25
2023-11-21T06:02:34.525Z,10.20
2023-11-21T06:05:01.236Z,10.26
2023-11-21T06:07:27.943Z,10.10
2023-11-21T06:09:54.551Z,10.09
2023-11-21T06:12:21.186Z,10.12
2023-11-21T06:14:47.798Z,10.21
2023-11-21T06:17:14.522Z,10.27
2023-11-21T06:19:41.212Z,10.26
2023-11-21T06:22:07.851Z,10.27
2023-11-21T06:24:34.476Z,10.21
2023-11-21T06:27:01.129Z,10.14
2023-11-21T06:29:27.768Z,10.07
2023-11-21T06:31:54.541Z,10.11
2023-11-21T06:34:21.199Z,10.17
2023-11-21T06:36:47.847Z,10.16
2023-11-21T06:39:14.442Z,10.16
2023-11-21T06:41:41.100Z,10.15
2023-11-21T06:44:07.854Z,10.24
2023-11-21T06:46:34.647Z,10.21
2023-11-21T06:49:01.332Z,10.23
2023-11-21T06:51:28.115Z,10.21
2023-11-21T06:53:54.889Z,10.22
2023-11-21T06:56:21.713Z,10.14
2023-11-21T06:58:48.635Z,10.20
2023-11-21T07:01:15.442Z,10.22
2023-11-21T07:03:42.401Z,10.18
2023-11-21T07:06:09.247Z,10.30
2023-11-21T07:08:39.120Z,10.29
2023-11-21T07:11:07.238Z,10.38
2023-11-21T07:13:34.079Z,10.39
2023-11-21T07:16:00.966Z,10.40
2023-11-21T07:18:28.901Z,10.40
2023-11-21T07:20:55.688Z,10.34
2023-11-21T07:23:22.542Z,10.54
2023-11-21T07:25:49.380Z,10.34
2023-11-21T07:28:16.227Z,10.38
2023-11-21T07:30:43.016Z,10.35
2023-11-21T07:33:12.879Z,10.51
2023-11-21T07:35:39.754Z,10.55
2023-11-21T07:38:06.636Z,10.66
2023-11-21T07:40:33.558Z,10.70
2023-11-21T07:43:00.468Z,10.78
2023-11-21T07:45:32.537Z,10.65
2023-11-21T07:48:02.479Z,10.79
2023-11-21T07:50:29.256Z,10.85
2023-11-21T07:52:56.131Z,10.91
2023-11-21T07:55:22.970Z,10.91
2023-11-21T07:57:49.756Z,10.83
2023-11-21T08:00:16.612Z,11.01
2023-11-21T08:02:44.077Z,11.08
2023-11-21T08:05:21.665Z,11.13
2023-11-21T08:07:55.073Z,11.09
2023-11-21T08:10:23.174Z,11.25
2023-11-21T08:12:53.057Z,11.33
2023-11-21T08:15:19.912Z,11.37
2023-11-21T08:17:49.897Z,11.45
2023-11-21T08:20:16.826Z,11.43
2023-11-21T08:22:46.756Z,11.58
2023-11-21T08:25:16.622Z,11.62
2023-11-21T08:27:46.428Z,11.80
2023-11-21T08:30:13.275Z,11.74
2023-11-21T08:32:40.139Z,11.77
2023-11-21T08:35:10.121Z,11.63
2023-11-21T08:37:37.049Z,11.82
2023-11-21T08:40:03.873Z,11.77
2023-11-21T08:42:30.640Z,11.76
2023-11-21T08:44:57.449Z,11.94
2023-11-21T08:47:27.281Z,12.02
2023-11-21T08:52:21.713Z,12.26
2023-11-21T08:54:51.640Z,12.46
2023-11-21T08:57:18.467Z,12.36
2023-11-21T08:59:45.104Z,12.62
2023-11-21T09:02:11.809Z,12.67
2023-11-21T09:04:39.945Z,13.11
2023-11-21T09:07:06.799Z,13.32
2023-11-21T09:09:33.438Z,13.45
2023-11-21T09:12:00.072Z,13.69
2023-11-21T09:14:26.757Z,13.75
2023-11-21T09:16:53.482Z,13.53
2023-11-21T09:19:20.168Z,13.58
2023-11-21T09:21:46.757Z,13.35
2023-11-21T09:24:13.357Z,13.49
2023-11-21T09:26:39.977Z,13.51
2023-11-21T09:29:06.706Z,13.12
2023-11-21T09:31:33.391Z,13.12
2023-11-21T09:34:00.010Z,13.28
2023-11-21T09:36:26.619Z,13.48
2023-11-21T09:38:53.243Z,13.52
2023-11-21T09:41:19.885Z,13.53
2023-11-21T09:43:46.464Z,13.19
2023-11-21T09:46:13.109Z,13.16
2023-11-21T09:48:39.744Z,13.14
2023-11-21T09:51:06.378Z,13.50
2023-11-21T09:53:32.967Z,13.72
2023-11-21T09:55:59.616Z,13.60
2023-11-21T09:58:29.583Z,13.51
2023-11-21T10:00:56.386Z,13.78
2023-11-21T10:03:23.236Z,13.57
2023-11-21T10:05:50.068Z,13.82
2023-11-21T10:08:19.839Z,13.91
2023-11-21T10:10:46.679Z,13.81
2023-11-21T10:13:16.519Z,14.05
2023-11-21T10:15:43.293Z,14.10
2023-11-21T10:18:13.130Z,14.27
2023-11-21T10:20:42.974Z,14.32
2023-11-21T10:23:09.778Z,14.65
2023-11-21T10:25:36.658Z,14.58
2023-11-21T10:28:03.463Z,14.76
2023-11-21T10:30:30.300Z,14.08
2023-11-21T10:32:57.145Z,14.21
2023-11-21T10:35:27.060Z,14.48
2023-11-21T10:37:56.909Z,13.96
2023-11-21T10:40:23.724Z,13.97
2023-11-21T10:42:50.496Z,14.25
2023-11-21T10:45:17.292Z,14.04
2023-11-21T10:47:44.135Z,14.04
2023-11-21T10:50:10.986Z,14.02
2023-11-21T10:52:37.789Z,14.18
2023-11-21T10:55:04.530Z,14.47
2023-11-21T10:57:31.361Z,14.45
2023-11-21T10:59:58.263Z,14.68
2023-11-21T11:02:28.271Z,14.07
2023-11-21T11:04:58.200Z,13.98
2023-11-21T11:07:25.013Z,13.91
2023-11-21T11:09:51.806Z,14.01
2023-11-21T11:12:18.634Z,14.03
2023-11-21T11:14:45.495Z,13.90
2023-11-21T11:17:12.411Z,13.88
2023-11-21T11:19:39.308Z,14.19
2023-11-21T11:22:06.149Z,14.28
2023-11-21T11:24:32.910Z,14.14
2023-11-21T11:26:59.681Z,14.52
2023-11-21T11:29:26.585Z,14.66
2023-11-21T11:31:53.490Z,14.47
2023-11-21T11:34:20.266Z,14.36
2023-11-21T11:36:47.111Z,14.77
2023-11-21T11:39:16.943Z,14.79
2023-11-21T11:41:43.764Z,14.38
2023-11-21T11:44:13.610Z,14.44
2023-11-21T11:46:40.553Z,14.48
2023-11-21T11:49:10.363Z,14.32
2023-11-21T11:51:37.164Z,14.45
2023-11-21T11:54:03.971Z,14.20
2023-11-21T11:56:30.736Z,14.09
2023-11-21T11:58:57.645Z,13.86
2023-11-21T12:01:24.510Z,13.96
2023-11-21T12:03:54.490Z,13.83
2023-11-21T12:06:24.376Z,13.70
2023-11-21T12:08:51.205Z,13.67
2023-11-21T12:11:17.971Z,13.52
2023-11-21T12:13:46.823Z,13.45
2023-11-21T12:16:13.589Z,12.46
2023-11-21T12:18:40.365Z,12.13
2023-11-21T12:21:07.149Z,11.70
2023-11-21T12:23:33.940Z,11.66
2023-11-21T12:26:00.759Z,12.17
2023-11-21T12:28:30.614Z,12.12
2023-11-21T12:31:07.831Z,12.25
2023-11-21T12:33:41.477Z,12.97
2023-11-21T12:36:08.211Z,12.38
2023-11-21T12:38:35.012Z,11.68
2023-11-21T12:41:01.823Z,12.18
2023-11-21T12:43:32.556Z,12.57
2023-11-21T12:45:59.888Z,12.48
2023-11-21T12:48:26.734Z,12.75
2023-11-21T12:50:53.537Z,12.70
2023-11-21T12:53:20.336Z,12.57
2023-11-21T12:55:47.166Z,12.28
2023-11-21T12:58:14.080Z,12.41
2023-11-21T13:00:41.079Z,12.96
2023-11-21T13:03:07.958Z,12.59
2023-11-21T13:05:34.790Z,12.73
2023-11-21T13:08:01.582Z,12.96
2023-11-21T13:10:28.402Z,12.86
2023-11-21T13:12:55.227Z,13.14
2023-11-21T13:15:22.065Z,12.41
2023-11-21T13:17:48.859Z,11.57
2023-11-21T13:20:15.642Z,11.39
2023-11-21T13:22:42.456Z,11.60
2023-11-21T13:25:09.238Z,11.44
2023-11-21T13:27:39.065Z,11.30
2023-11-21T13:30:08.865Z,11.43
2023-11-21T13:32:35.668Z,11.43
2023-11-21T13:35:02.477Z,11.58
2023-11-21T13:37:29.250Z,11.82
2023-11-21T13:39:56.048Z,12.15
2023-11-21T13:42:22.936Z,12.13
2023-11-21T13:44:52.778Z,11.74
2023-11-21T13:47:19.617Z,11.94
2023-11-21T13:49:46.446Z,12.06
2023-11-21T13:52:13.344Z,11.95
2023-11-21T13:54:40.149Z,11.87
2023-11-21T13:57:09.938Z,12.20
2023-11-21T13:59:39.804Z,12.28
2023-11-21T14:02:06.677Z,12.03
2023-11-21T14:04:33.532Z,11.90
2023-11-21T14:07:00.342Z,11.58
2023-11-21T14:09:27.308Z,11.88
2023-11-21T14:11:54.099Z,11.82
2023-11-21T14:14:20.871Z,11.95
2023-11-21T14:16:47.711Z,11.72
2023-11-21T14:19:17.525Z,11.54
2023-11-21T14:21:44.305Z,11.20
2023-11-21T14:24:14.072Z,11.77
2023-11-21T14:26:40.878Z,11.84
2023-11-21T14:29:07.642Z,11.85
2023-11-21T14:31:34.559Z,12.09
2023-11-21T14:34:01.418Z,12.20
2023-11-21T14:36:28.195Z,12.20
2023-11-21T14:38:54.934Z,12.22
2023-11-21T14:41:21.707Z,12.32
2023-11-21T14:43:48.517Z,12.00
2023-11-21T14:46:15.436Z,11.91
2023-11-21T14:48:42.225Z,12.15
2023-11-21T14:51:09.052Z,12.10
2023-11-21T14:53:38.829Z,11.94
2023-11-21T14:56:08.779Z,11.85
2023-11-21T14:58:35.635Z,11.86
2023-11-21T15:01:02.450Z,11.79
2023-11-21T15:03:47.711Z,12.19
2023-11-21T15:06:14.569Z,11.96
2023-11-21T15:08:44.385Z,11.66
2023-11-21T15:11:14.233Z,11.97
2023-11-21T15:13:41.145Z,12.02
2023-11-21T15:16:11.003Z,11.91
2023-11-21T15:18:37.805Z,11.75
2023-11-21T15:21:07.671Z,11.74
2023-11-21T15:23:34.465Z,11.69
2023-11-21T15:26:01.261Z,11.63
2023-11-21T15:28:31.093Z,11.54
2023-11-21T15:31:00.920Z,11.30
2023-11-21T15:33:27.752Z,11.40
2023-11-21T15:35:54.534Z,11.63
2023-11-21T15:38:21.506Z,11.51
2023-11-21T15:40:48.317Z,11.37
2023-11-21T15:43:15.188Z,11.34
2023-11-21T15:45:45.033Z,11.58
2023-11-21T15:48:14.861Z,11.38
2023-11-21T15:50:41.700Z,11.66
2023-11-21T15:53:08.552Z,11.67
2023-11-21T15:55:35.348Z,11.53
2023-11-21T15:58:02.108Z,11.34
2023-11-21T16:00:31.891Z,11.47
2023-11-21T16:03:01.957Z,11.41
2023-11-21T16:05:28.823Z,11.32
2023-11-21T16:07:55.663Z,11.22
2023-11-21T16:10:22.574Z,11.06
2023-11-21T16:12:49.346Z,11.35
2023-11-21T16:15:16.185Z,11.54
2023-11-21T16:17:43.117Z,11.30
2023-11-21T16:20:13.046Z,11.27
2023-11-21T16:22:39.997Z,11.14
2023-11-21T16:25:06.828Z,10.71
2023-11-21T16:27:33.577Z,10.95
2023-11-21T16:30:00.362Z,11.06
2023-11-21T16:32:30.213Z,11.19
2023-11-21T16:34:57.089Z,11.10
2023-11-21T16:37:26.932Z,11.06
2023-11-21T16:39:53.697Z,10.88
2023-11-21T16:42:21.732Z,11.15
2023-11-21T16:44:52.821Z,11.22
2023-11-21T16:47:19.670Z,11.09
2023-11-21T16:49:46.596Z,11.04
2023-11-21T16:52:13.370Z,11.16
2023-11-21T16:54:40.162Z,10.90
2023-11-21T16:57:06.942Z,10.88
2023-11-21T16:59:33.737Z,10.77
2023-11-21T17:02:03.663Z,10.77
2023-11-21T17:04:30.538Z,10.83
2023-11-21T17:06:57.347Z,10.66
2023-11-21T17:09:24.181Z,10.57
2023-11-21T17:11:51.023Z,10.56
2023-11-21T17:14:20.874Z,10.37
2023-11-21T17:16:47.744Z,10.51
2023-11-21T17:19:14.607Z,10.33
2023-11-21T17:21:41.413Z,10.36
2023-11-21T17:24:08.205Z,10.13
2023-11-21T17:26:35.064Z,10.17
2023-11-21T17:29:02.007Z,10.23
2023-11-21T17:31:28.831Z,10.42
2023-11-21T17:33:55.785Z,10.26
2023-11-21T17:36:22.735Z,10.43
2023-11-21T17:38:49.706Z,10.24
2023-11-21T17:41:16.576Z,10.31
2023-11-21T17:43:43.431Z,10.30
2023-11-21T17:46:10.297Z,10.15
2023-11-21T17:48:37.121Z,10.02
2023-11-21T17:51:03.957Z,10.07
2023-11-21T17:53:33.800Z,10.12
2023-11-21T17:56:03.652Z,9.99
2023-11-21T17:58:30.439Z,10.04
2023-11-21T18:01:00.364Z,10.14
2023-11-21T18:03:27.283Z,10.27
2023-11-21T18:05:55.512Z,10.31
2023-11-21T18:08:28.407Z,10.45
2023-11-21T18:10:55.288Z,10.55
2023-11-21T18:13:22.203Z,10.35
2023-11-21T18:15:52.287Z,10.33
2023-11-21T18:18:19.105Z,10.35
2023-11-21T18:20:45.921Z,10.27
2023-11-21T18:23:15.844Z,10.26
2023-11-21T18:25:42.897Z,9.95
2023-11-21T18:28:12.782Z,9.80
2023-11-21T18:30:42.767Z,9.99
2023-11-21T18:33:09.678Z,10.06
2023-11-21T18:35:36.591Z,9.93
2023-11-21T18:38:03.517Z,9.96
2023-11-21T18:40:33.427Z,10.08
2023-11-21T18:43:03.404Z,10.13
2023-11-21T18:45:30.371Z,10.24
2023-11-21T18:47:57.335Z,10.24
2023-11-21T18:50:27.435Z,10.37
2023-11-21T18:52:54.470Z,10.44
2023-11-21T18:55:24.390Z,10.56
2023-11-21T18:57:54.239Z,10.28
2023-11-21T19:00:21.083Z,10.43
2023-11-21T19:02:48.175Z,10.52
2023-11-21T19:05:15.009Z,10.41
2023-11-21T19:07:41.674Z,10.25
2023-11-21T19:10:08.295Z,10.11
2023-11-21T19:12:36.941Z,10.14
2023-11-21T19:15:03.928Z,10.09
2023-11-21T19:17:30.569Z,10.12
2023-11-21T19:19:57.205Z,10.13
2023-11-21T19:22:23.910Z,10.17
2023-11-21T19:24:50.532Z,10.22
2023-11-21T19:27:17.155Z,10.03
2023-11-21T19:29:43.778Z,10.31
2023-11-21T19:32:10.506Z,10.23
2023-11-21T19:34:37.184Z,10.03
2023-11-21T19:37:03.845Z,9.71
2023-11-21T19:39:30.442Z,9.46
2023-11-21T19:41:57.048Z,9.47
2023-11-21T19:44:23.656Z,9.51
2023-11-21T19:46:50.368Z,9.43
2023-11-21T19:49:17.004Z,9.40
2023-11-21T19:51:43.646Z,9.39
2023-11-21T19:54:10.322Z,9.59
2023-11-21T19:56:44.210Z,9.78
2023-11-21T19:59:23.744Z,10.03
2023-11-21T20:01:51.235Z,10.12
2023-11-21T20:04:20.447Z,10.38
2023-11-21T20:06:54.536Z,10.31
2023-11-21T20:18:47.652Z,10.11
2023-11-21T20:21:14.706Z,10.15
2023-11-21T20:26:43.564Z,10.28
2023-11-21T20:29:11.836Z,10.18
2023-11-21T20:31:43.436Z,9.99
2023-11-21T20:34:11.506Z,10.09
2023-11-21T20:42:35.415Z,9.93
2023-11-21T20:45:16.983Z,9.94
2023-11-21T20:47:46.186Z,9.91
2023-11-21T20:50:13.154Z,10.00
2023-11-21T20:52:53.189Z,9.88
2023-11-21T20:55:22.348Z,10.00
2023-11-21T20:57:49.195Z,10.25
2023-11-21T21:00:16.139Z,10.16
2023-11-21T21:02:44.622Z,10.14
2023-11-21T21:05:13.879Z,10.26
2023-11-21T21:07:41.023Z,9.99
2023-11-21T21:10:07.728Z,10.13
2023-11-21T21:12:37.696Z,10.02
2023-11-21T21:15:04.469Z,9.91
2023-11-21T21:17:31.220Z,9.78
2023-11-21T21:19:58.025Z,9.84
2023-11-21T21:22:24.745Z,9.95
2023-11-21T21:24:53.946Z,10.09
2023-11-21T21:27:23.438Z,10.23
2023-11-21T21:29:50.348Z,9.91
2023-11-21T21:32:17.256Z,10.01
2023-11-21T21:34:44.071Z,9.89
2023-11-21T21:37:10.905Z,9.71
2023-11-21T21:39:39.805Z,9.62
2023-11-21T21:42:06.572Z,9.52
2023-11-21T21:44:42.080Z,9.49
2023-11-21T21:47:10.124Z,9.15
2023-11-21T21:49:36.817Z,9.10
2023-11-21T21:52:04.706Z,9.27
2023-11-21T21:54:31.506Z,9.35
2023-11-21T21:56:58.206Z,9.57
2023-11-21T21:59:24.996Z,9.53
2023-11-21T22:01:53.685Z,9.39
2023-11-21T22:04:20.577Z,9.55
2023-11-21T22:06:47.477Z,9.47
2023-11-21T22:09:14.290Z,9.28
2023-11-21T22:11:43.101Z,9.21
2023-11-21T22:14:09.948Z,9.00
2023-11-21T22:16:50.762Z,8.93
2023-11-21T22:19:18.677Z,9.02
2023-11-21T22:21:45.386Z,9.11
2023-11-21T22:24:12.138Z,9.23
2023-11-21T22:26:41.225Z,9.22
2023-11-21T22:29:19.421Z,9.40
2023-11-21T22:31:47.706Z,9.32
2023-11-21T22:34:14.621Z,9.43
2023-11-21T22:36:42.646Z,9.49
2023-11-21T22:39:21.257Z,9.63
2023-11-21T22:56:20.005Z,10.02
2023-11-21T23:05:06.763Z,10.14
2023-11-21T23:07:41.852Z,10.23
2023-11-21T23:10:14.564Z,10.19
2023-11-21T23:12:41.388Z,10.10
2023-11-21T23:15:14.011Z,9.92
2023-11-21T23:17:45.183Z,10.04
2023-11-21T23:21:18.965Z,10.00
2023-11-21T23:28:40.113Z,10.10
2023-11-21T23:36:42.732Z,10.05
2023-11-21T23:39:27.439Z,9.97
2023-11-21T23:44:41.715Z,10.01
2023-11-21T23:47:19.195Z,10.02
2023-11-21T23:49:56.006Z,10.02
2023-11-21T23:52:23.959Z,10.23
2023-11-21T23:57:48.874Z,10.17
